.
WxDataArchive / Data Records for 2013-10-10
2013-10-09 October 2013 2013-10-11

Data Records for Thursday, 10 October 2013

Time	Temp	Chill	HIndex	Humid	Dewpt	 Wind 	HiWind	WindDir	Rain 	Barom 
-----	----	-----	------	-----	-----	------	------	-------	-----	----- 
00:00	49.6	49.6	49.6	77	42.7	0	0	---	0.00	30.183 
00:05	49.4	49.4	49.4	78	42.8	0	0	---	0.00	30.183 
00:10	49.2	49.2	49.2	79	43.0	0	0	---	0.00	30.183 
00:15	48.9	48.9	48.9	80	43.0	0	0	---	0.00	30.183 
00:20	48.8	48.8	48.8	80	42.9	0	0	---	0.00	30.183 
00:25	48.5	48.5	48.5	81	42.9	0	0	---	0.00	30.183 
00:30	48.3	48.3	48.3	81	42.7	0	0	---	0.00	30.182 
00:35	48.2	48.2	48.2	82	43.0	0	0	---	0.00	30.182 
00:40	47.9	47.9	47.9	83	43.0	0	0	---	0.00	30.182 
00:45	47.7	47.7	47.7	83	42.8	0	0	---	0.00	30.179 
00:50	47.4	47.4	47.4	83	42.5	0	0	---	0.00	30.179 
00:55	47.3	47.3	47.3	84	42.7	0	0	---	0.00	30.179 
01:00	47.1	47.1	47.1	84	42.5	0	0	---	0.00	30.174 
01:05	47.0	47.0	47.0	85	42.7	0	0	---	0.00	30.174 
01:10	47.0	47.0	47.0	86	43.0	0	0	---	0.00	30.174 
01:15	47.0	47.0	47.0	87	43.3	0	0	---	0.00	30.171 
01:20	46.8	46.8	46.8	87	43.1	0	0	---	0.00	30.171 
01:25	46.7	46.7	46.7	87	43.0	0	0	---	0.00	30.171 
01:30	46.5	46.5	46.5	87	42.8	0	0	---	0.00	30.170 
01:35	46.4	46.4	46.4	88	43.0	0	0	---	0.00	30.170 
01:40	46.2	46.2	46.2	88	42.8	0	0	---	0.00	30.170 
01:45	46.1	46.1	46.1	88	42.7	0	0	---	0.00	30.171 
01:50	46.0	46.0	46.0	88	42.6	0	0	---	0.00	30.171 
01:55	46.0	46.0	46.0	89	42.9	0	0	---	0.00	30.171 
02:00	46.0	46.0	46.0	89	42.9	0	0	---	0.00	30.169 
02:05	46.0	46.0	46.0	89	42.9	0	0	---	0.00	30.169 
02:10	46.0	46.0	46.0	90	43.2	0	0	---	0.00	30.169 
02:15	45.8	45.8	45.8	90	43.0	0	0	---	0.00	30.169 
02:20	45.7	45.7	45.7	90	42.9	0	0	---	0.00	30.169 
02:25	45.5	45.5	45.5	90	42.7	0	0	---	0.00	30.169 
02:30	45.4	45.4	45.4	90	42.6	0	0	---	0.00	30.174 
02:35	45.4	45.4	45.4	90	42.6	0	0	---	0.00	30.174 
02:40	45.2	45.2	45.2	90	42.4	0	0	---	0.00	30.174 
02:45	45.1	45.1	45.1	90	42.3	0	0	---	0.00	30.175 
02:50	44.9	44.9	44.9	90	42.1	0	0	---	0.00	30.175 
02:55	44.8	44.8	44.8	91	42.3	0	0	---	0.00	30.175 
03:00	44.8	44.8	44.8	91	42.3	0	0	---	0.00	30.174 
03:05	44.6	44.6	44.6	91	42.1	0	0	---	0.00	30.174 
03:10	44.6	44.6	44.6	91	42.1	0	0	---	0.00	30.174 
03:15	44.5	44.5	44.5	91	42.0	0	0	---	0.00	30.174 
03:20	44.3	44.3	44.3	91	41.8	0	0	---	0.00	30.174 
03:25	44.3	44.3	44.3	91	41.8	0	0	---	0.00	30.174 
03:30	44.2	44.2	44.2	91	41.7	0	0	---	0.00	30.178 
03:35	44.1	44.1	44.1	92	41.9	0	0	---	0.00	30.178 
03:40	44.1	44.1	44.1	92	41.9	0	0	---	0.00	30.178 
03:45	43.9	43.9	43.9	92	41.7	0	0	---	0.00	30.180 
03:50	43.9	43.9	43.9	92	41.7	0	0	---	0.00	30.180 
03:55	43.8	43.8	43.8	92	41.6	0	0	---	0.00	30.180 
04:00	43.8	43.8	43.8	92	41.6	0	0	---	0.00	30.177 
04:05	43.6	43.6	43.6	92	41.4	0	0	---	0.00	30.177 
04:10	43.5	43.5	43.5	92	41.3	0	0	---	0.00	30.177 
04:15	43.5	43.5	43.5	92	41.3	0	0	---	0.00	30.171 
04:20	43.3	43.3	43.3	92	41.1	0	0	---	0.00	30.171 
04:25	43.3	43.3	43.3	92	41.1	0	0	---	0.00	30.171 
04:30	43.3	43.3	43.3	92	41.1	0	0	---	0.00	30.177 
04:35	43.2	43.2	43.2	92	41.0	0	0	---	0.00	30.177 
04:40	43.1	43.1	43.1	92	40.9	0	0	---	0.00	30.177 
04:45	43.1	43.1	43.1	92	40.9	0	0	---	0.00	30.176 
04:50	43.1	43.1	43.1	92	40.9	0	0	---	0.00	30.176 
04:55	42.9	42.9	42.9	92	40.7	0	0	---	0.00	30.176 
05:00	42.8	42.8	42.8	92	40.6	0	0	---	0.00	30.175 
05:05	42.8	42.8	42.8	93	40.9	0	0	---	0.00	30.175 
05:10	42.6	42.6	42.6	93	40.7	0	0	---	0.00	30.175 
05:15	42.8	42.8	42.8	93	40.9	0	0	---	0.00	30.179 
05:20	42.8	42.8	42.8	93	40.9	0	0	---	0.00	30.179 
05:25	42.8	42.8	42.8	93	40.9	0	0	---	0.00	30.179 
05:30	42.8	42.8	42.8	93	40.9	0	0	---	0.00	30.182 
05:35	42.8	42.8	42.8	93	40.9	0	0	---	0.00	30.182 
05:40	42.6	42.6	42.6	93	40.7	0	0	---	0.00	30.182 
05:45	42.6	42.6	42.6	93	40.7	0	0	---	0.00	30.182 
05:50	42.5	42.5	42.5	93	40.6	0	0	---	0.00	30.182 
05:55	42.5	42.5	42.5	93	40.6	0	0	---	0.00	30.182 
06:00	42.5	42.5	42.5	93	40.6	0	0	---	0.00	30.182 
06:05	42.3	42.3	42.3	93	40.4	0	0	---	0.00	30.182 
06:10	42.3	42.3	42.3	93	40.4	0	0	---	0.00	30.182 
06:15	42.3	42.3	42.3	93	40.4	0	0	---	0.00	30.186 
06:20	42.2	42.2	42.2	93	40.3	0	0	---	0.00	30.186 
06:25	42.2	42.2	42.2	94	40.6	0	0	---	0.00	30.186 
06:30	42.2	42.2	42.2	94	40.6	0	0	---	0.00	30.186 
06:35	42.2	42.2	42.2	94	40.6	0	0	---	0.00	30.186 
06:40	42.2	42.2	42.2	94	40.6	0	0	---	0.00	30.186 
06:45	42.1	42.1	42.1	94	40.5	0	0	---	0.00	30.183 
06:50	42.1	42.1	42.1	94	40.5	0	0	---	0.00	30.183 
06:55	42.1	42.1	42.1	94	40.5	0	0	---	0.00	30.183 
07:00	41.9	41.9	41.9	94	40.3	0	0	---	0.00	30.185 
07:05	41.9	41.9	41.9	94	40.3	0	0	---	0.00	30.185 
07:10	41.8	41.8	41.8	94	40.2	0	0	---	0.00	30.185 
07:15	41.6	41.6	41.6	94	40.0	0	0	---	0.00	30.194 
07:20	41.5	41.5	41.5	94	39.9	0	0	---	0.00	30.194 
07:25	41.5	41.5	41.5	94	39.9	0	0	---	0.00	30.194 
07:30	41.3	41.3	41.3	94	39.7	0	0	---	0.00	30.196 
07:35	41.3	41.3	41.3	94	39.7	0	0	---	0.00	30.196 
07:40	41.3	41.3	41.3	94	39.7	0	0	---	0.00	30.196 
07:45	41.3	41.3	41.3	94	39.7	0	0	---	0.00	30.192 
07:50	41.3	41.3	41.3	94	39.7	0	0	---	0.00	30.192 
07:55	41.2	41.2	41.2	94	39.6	0	0	---	0.00	30.192 
08:00	41.2	41.2	41.2	94	39.6	0	0	---	0.00	30.189 
08:05	41.2	41.2	41.2	94	39.6	0	0	---	0.00	30.189 
08:10	41.3	41.3	41.3	94	39.7	0	0	---	0.00	30.189 
08:15	41.5	41.5	41.5	94	39.9	0	0	---	0.00	30.194 
08:20	41.6	41.6	41.6	94	40.0	0	0	---	0.00	30.194 
08:25	42.1	42.1	42.1	95	40.8	0	0	---	0.00	30.194 
08:30	42.3	42.3	42.3	95	41.0	0	0	---	0.00	30.189 
08:35	42.9	42.9	42.9	95	41.6	0	0	---	0.00	30.189 
08:40	43.3	43.3	43.3	95	42.0	0	0	---	0.00	30.189 
08:45	44.1	44.1	44.1	96	43.0	0	0	---	0.00	30.195 
08:50	45.1	45.1	45.1	96	44.0	0	0	---	0.00	30.195 
08:55	45.7	45.7	45.7	96	44.6	0	0	---	0.00	30.195 
09:00	46.4	46.4	46.4	96	45.3	0	0	---	0.00	30.193 
09:05	47.0	47.0	47.0	96	45.9	0	0	---	0.00	30.193 
09:10	47.4	47.4	47.4	96	46.3	0	0	---	0.00	30.193 
09:15	47.7	47.7	47.7	96	46.6	0	1	90	0.00	30.191 
09:20	48.3	48.3	48.3	96	47.2	0	2	90	0.00	30.191 
09:25	48.6	48.6	48.6	95	47.2	1	3	90	0.00	30.191 
09:30	48.9	48.9	48.9	94	47.2	1	3	90	0.00	30.192 
09:35	49.2	49.2	49.2	93	47.3	0	1	90	0.00	30.192 
09:40	49.6	49.6	49.6	92	47.4	1	3	90	0.00	30.192 
09:45	49.9	49.9	49.9	91	47.4	1	3	90	0.00	30.193 
09:50	50.4	50.4	50.4	91	47.9	0	3	90	0.00	30.193 
09:55	51.0	51.0	51.0	89	47.9	0	2	90	0.00	30.193 
10:00	51.6	51.6	51.6	88	48.2	1	3	90	0.00	30.192 
10:05	52.0	52.0	52.0	87	48.3	1	2	90	0.00	30.192 
10:10	52.9	52.9	52.9	85	48.5	1	3	90	0.00	30.192 
10:15	53.9	53.9	53.9	82	48.5	1	3	90	0.00	30.195 
10:20	54.7	54.7	54.7	80	48.7	1	2	90	0.00	30.195 
10:25	55.6	55.6	55.6	78	48.8	0	2	90	0.00	30.195 
10:30	56.6	56.6	56.6	77	49.5	0	1	90	0.00	30.194 
10:35	57.6	57.6	57.6	74	49.4	0	1	90	0.00	30.194 
10:40	58.7	58.7	58.7	72	49.7	0	2	90	0.00	30.194 
10:45	59.6	59.6	59.6	70	49.8	0	0	---	0.00	30.195 
10:50	60.9	60.9	60.9	66	49.5	0	1	90	0.00	30.195 
10:55	61.6	61.6	61.6	63	48.9	0	0	---	0.00	30.195 
11:00	62.6	62.6	62.6	62	49.4	0	0	---	0.00	30.192 
11:05	63.1	63.1	63.1	59	48.5	0	3	90	0.00	30.192 
11:10	63.7	63.7	63.7	58	48.6	0	1	90	0.00	30.192 
11:15	64.5	64.5	64.5	54	47.5	0	1	90	0.00	30.196 
11:20	64.3	64.3	64.3	57	48.7	0	2	90	0.00	30.196 
11:25	64.5	64.5	64.5	61	50.7	0	2	248	0.00	30.196 
11:30	64.7	64.7	64.7	58	49.6	1	4	248	0.00	30.196 
11:35	65.2	65.2	65.2	56	49.1	0	3	248	0.00	30.196 
11:40	65.6	65.6	65.6	58	50.4	0	2	248	0.00	30.196 
11:45	66.0	66.0	66.0	53	48.4	0	1	248	0.00	30.195 
11:50	66.6	66.6	66.6	51	47.9	0	3	248	0.00	30.195 
11:55	67.1	67.1	67.1	50	47.8	0	2	248	0.00	30.195 
12:00	67.8	67.8	67.8	50	48.5	0	1	248	0.00	30.190 
12:05	68.6	68.6	68.6	48	48.1	0	1	248	0.00	30.190 
12:10	68.9	68.9	68.9	46	47.3	0	3	248	0.00	30.190 
12:15	69.1	69.1	69.1	44	46.3	0	1	248	0.00	30.185 
12:20	68.9	68.9	68.9	43	45.5	1	4	248	0.00	30.185 
12:25	68.8	68.8	68.8	44	46.0	1	5	68	0.00	30.185 
12:30	68.6	68.6	68.6	46	47.0	1	3	112	0.00	30.182 
12:35	68.6	68.6	68.6	44	45.8	1	3	112	0.00	30.182 
12:40	68.6	68.6	68.6	44	45.8	1	3	112	0.00	30.182 
12:45	68.6	68.6	68.6	45	46.4	1	4	112	0.00	30.176 
12:50	68.9	68.9	68.9	44	46.1	1	3	135	0.00	30.176 
12:55	69.1	69.1	69.1	42	45.0	0	3	135	0.00	30.176 
13:00	69.1	69.1	69.1	41	44.4	1	3	135	0.00	30.170 
13:05	69.1	69.1	69.1	41	44.4	0	2	135	0.00	30.170 
13:10	69.1	69.1	69.1	41	44.4	1	4	135	0.00	30.170 
13:15	69.3	69.3	69.3	41	44.6	1	4	135	0.00	30.169 
13:20	69.3	69.3	69.3	39	43.3	1	3	135	0.00	30.169 
13:25	69.3	69.3	69.3	42	45.2	1	3	135	0.00	30.169 
13:30	69.3	69.3	69.3	41	44.6	1	3	112	0.00	30.166 
13:35	69.1	69.1	69.1	39	43.1	1	4	112	0.00	30.166 
13:40	69.3	69.3	69.3	39	43.3	0	1	112	0.00	30.166 
13:45	69.3	69.3	69.3	42	45.2	1	2	112	0.00	30.159 
13:50	69.4	69.4	69.4	40	44.0	1	4	112	0.00	30.159 
13:55	69.4	69.4	69.4	40	44.0	1	2	112	0.00	30.159 
14:00	69.6	69.6	69.6	38	42.9	1	4	112	0.00	30.156 
14:05	69.4	69.4	69.4	36	41.3	1	4	112	0.00	30.156 
14:10	69.4	69.4	69.4	38	42.7	1	4	112	0.00	30.156 
14:15	69.3	69.3	69.3	36	41.2	2	5	112	0.00	30.152 
14:20	69.1	69.1	69.1	39	43.1	1	4	90	0.00	30.152 
14:25	69.1	69.1	69.1	37	41.7	0	2	90	0.00	30.152 
14:30	69.4	69.4	69.4	39	43.4	0	2	90	0.00	30.150 
14:35	69.4	69.4	69.4	36	41.3	1	4	90	0.00	30.150 
14:40	69.8	69.8	69.8	38	43.0	0	3	90	0.00	30.150 
14:45	69.8	69.8	69.8	36	41.6	0	2	90	0.00	30.140 
14:50	70.1	70.1	70.1	38	43.3	0	1	90	0.00	30.140 
14:55	70.3	70.3	70.3	37	42.8	0	2	90	0.00	30.140 
15:00	70.3	70.3	70.3	36	42.1	1	3	90	0.00	30.137 
15:05	70.1	70.1	70.1	38	43.3	1	4	90	0.00	30.137 
15:10	70.1	70.1	70.1	35	41.2	1	4	90	0.00	30.137 
15:15	69.9	69.9	69.9	40	44.5	0	2	90	0.00	30.136 
15:20	69.9	69.9	69.9	34	40.2	0	1	90	0.00	30.136 
15:25	69.9	69.9	69.9	33	39.5	0	3	90	0.00	30.136 
15:30	69.8	69.8	69.8	34	40.2	0	3	90	0.00	30.134 
15:35	69.8	69.8	69.8	33	39.4	0	3	90	0.00	30.134 
15:40	69.9	69.9	69.9	35	41.0	0	2	90	0.00	30.134 
15:45	70.1	70.1	70.1	36	41.9	0	3	90	0.00	30.126 
15:50	70.6	70.6	70.6	33	40.1	0	1	90	0.00	30.126 
15:55	70.8	70.8	70.8	33	40.3	0	1	90	0.00	30.126 
16:00	70.8	70.8	70.8	31	38.7	1	2	90	0.00	30.120 
16:05	70.6	70.6	70.6	35	41.6	0	2	90	0.00	30.120 
16:10	70.6	70.6	70.6	32	39.3	2	4	90	0.00	30.120 
16:15	70.4	70.4	70.4	33	39.9	0	2	90	0.00	30.115 
16:20	70.3	70.3	70.3	30	37.4	0	2	90	0.00	30.115 
16:25	70.3	70.3	70.3	32	39.0	0	3	90	0.00	30.115 
16:30	70.3	70.3	70.3	32	39.0	0	3	90	0.00	30.108 
16:35	70.3	70.3	70.3	29	36.5	0	2	90	0.00	30.108 
16:40	70.3	70.3	70.3	34	40.6	0	4	90	0.00	30.108 
16:45	70.3	70.3	70.3	34	40.6	0	2	90	0.00	30.107 
16:50	70.3	70.3	70.3	32	39.0	0	1	90	0.00	30.107 
16:55	70.3	70.3	70.3	31	38.2	0	1	90	0.00	30.107 
17:00	70.3	70.3	70.3	33	39.8	0	1	90	0.00	30.106 
17:05	70.3	70.3	70.3	33	39.8	0	1	90	0.00	30.106 
17:10	70.3	70.3	70.3	33	39.8	0	1	90	0.00	30.106 
17:15	70.3	70.3	70.3	31	38.2	0	1	90	0.00	30.104 
17:20	70.1	70.1	70.1	32	38.9	0	2	90	0.00	30.104 
17:25	70.1	70.1	70.1	30	37.2	0	2	90	0.00	30.104 
17:30	70.1	70.1	70.1	30	37.2	0	1	90	0.00	30.105 
17:35	69.9	69.9	69.9	32	38.7	0	0	---	0.00	30.105 
17:40	69.9	69.9	69.9	34	40.2	0	0	---	0.00	30.105 
17:45	69.9	69.9	69.9	33	39.5	0	2	90	0.00	30.102 
17:50	70.1	70.1	70.1	32	38.9	0	1	90	0.00	30.102 
17:55	70.3	70.3	70.3	32	39.0	0	1	90	0.00	30.102 
18:00	70.3	70.3	70.3	32	39.0	0	0	---	0.00	30.101 
18:05	70.1	70.1	70.1	35	41.2	0	0	---	0.00	30.101 
18:10	69.9	69.9	69.9	35	41.0	0	0	---	0.00	30.101 
18:15	69.4	69.4	69.4	35	40.6	0	0	---	0.00	30.099 
18:20	69.1	69.1	69.1	36	41.0	0	0	---	0.00	30.099 
18:25	68.6	68.6	68.6	37	41.3	0	0	---	0.00	30.099 
18:30	68.3	68.3	68.3	38	41.7	0	0	---	0.00	30.099 
18:35	67.8	67.8	67.8	40	42.6	0	0	---	0.00	30.099 
18:40	67.4	67.4	67.4	40	42.2	0	0	---	0.00	30.099 
18:45	66.9	66.9	66.9	44	44.3	0	0	---	0.00	30.099 
18:50	66.3	66.3	66.3	44	43.7	0	0	---	0.00	30.099 
18:55	65.6	65.6	65.6	46	44.3	0	0	---	0.00	30.099 
19:00	64.8	64.8	64.8	48	44.6	0	0	---	0.00	30.101 
19:05	64.2	64.2	64.2	49	44.6	0	0	---	0.00	30.101 
19:10	63.5	63.5	63.5	51	45.0	0	0	---	0.00	30.101 
19:15	62.7	62.7	62.7	53	45.3	0	0	---	0.00	30.104 
19:20	62.1	62.1	62.1	55	45.7	0	0	---	0.00	30.104 
19:25	61.6	61.6	61.6	57	46.2	0	0	---	0.00	30.104 
19:30	60.9	60.9	60.9	58	46.0	0	0	---	0.00	30.108 
19:35	60.2	60.2	60.2	60	46.3	0	1	90	0.00	30.108 
19:40	59.8	59.8	59.8	61	46.3	0	0	---	0.00	30.108 
19:45	59.3	59.3	59.3	62	46.3	0	2	90	0.00	30.113 
19:50	58.7	58.7	58.7	62	45.7	0	0	---	0.00	30.113 
19:55	58.4	58.4	58.4	63	45.9	0	0	---	0.00	30.113 
20:00	58.0	58.0	58.0	65	46.3	0	0	---	0.00	30.114 
20:05	57.6	57.6	57.6	66	46.3	0	0	---	0.00	30.114 
20:10	57.2	57.2	57.2	67	46.3	0	1	90	0.00	30.114 
20:15	56.7	56.7	56.7	66	45.5	0	0	---	0.00	30.106 
20:20	56.3	56.3	56.3	68	45.9	0	1	90	0.00	30.106 
20:25	55.9	55.9	55.9	68	45.5	0	0	---	0.00	30.106 
20:30	55.6	55.6	55.6	69	45.6	0	0	---	0.00	30.104 
20:35	55.3	55.3	55.3	70	45.7	0	0	---	0.00	30.104 
20:40	55.0	55.0	55.0	71	45.8	0	0	---	0.00	30.104 
20:45	54.7	54.7	54.7	72	45.9	0	0	---	0.00	30.108 
20:50	54.5	54.5	54.5	73	46.0	0	0	---	0.00	30.108 
20:55	54.2	54.2	54.2	74	46.1	0	0	---	0.00	30.108 
21:00	54.1	54.1	54.1	74	46.0	0	0	---	0.00	30.109 
21:05	53.9	53.9	53.9	75	46.2	0	0	---	0.00	30.109 
21:10	53.8	53.8	53.8	75	46.1	0	0	---	0.00	30.109 
21:15	53.5	53.5	53.5	75	45.8	0	0	---	0.00	30.106 
21:20	53.3	53.3	53.3	75	45.6	0	0	---	0.00	30.106 
21:25	53.2	53.2	53.2	76	45.8	0	0	---	0.00	30.106 
21:30	52.9	52.9	52.9	76	45.5	0	0	---	0.00	30.111 
21:35	52.6	52.6	52.6	76	45.3	0	0	---	0.00	30.111 
21:40	52.3	52.3	52.3	77	45.3	0	2	90	0.00	30.111 
21:45	52.0	52.0	52.0	78	45.4	0	0	---	0.00	30.112 
21:50	51.9	51.9	51.9	78	45.3	0	0	---	0.00	30.112 
21:55	51.7	51.7	51.7	79	45.4	0	0	---	0.00	30.112 
22:00	51.6	51.6	51.6	79	45.3	0	0	---	0.00	30.113 
22:05	51.4	51.4	51.4	78	44.8	0	0	---	0.00	30.113 
22:10	51.3	51.3	51.3	79	45.0	0	0	---	0.00	30.113 
22:15	51.1	51.1	51.1	78	44.5	0	0	---	0.00	30.105 
22:20	51.0	51.0	51.0	79	44.7	0	0	---	0.00	30.105 
22:25	50.7	50.7	50.7	79	44.4	0	0	---	0.00	30.105 
22:30	50.5	50.5	50.5	79	44.2	0	0	---	0.00	30.104 
22:35	50.4	50.4	50.4	80	44.5	0	0	---	0.00	30.104 
22:40	50.2	50.2	50.2	80	44.3	0	0	---	0.00	30.104 
22:45	50.1	50.1	50.1	80	44.2	0	0	---	0.00	30.105 
22:50	50.1	50.1	50.1	81	44.5	0	0	---	0.00	30.105 
22:55	50.1	50.1	50.1	81	44.5	0	0	---	0.00	30.105 
23:00	50.1	50.1	50.1	80	44.2	0	0	---	0.00	30.106 
23:05	49.9	49.9	49.9	81	44.3	0	0	---	0.00	30.106 
23:10	49.9	49.9	49.9	81	44.3	0	0	---	0.00	30.106 
23:15	49.8	49.8	49.8	81	44.2	0	0	---	0.00	30.101 
23:20	49.6	49.6	49.6	81	44.0	0	0	---	0.00	30.101 
23:25	49.4	49.4	49.4	81	43.8	0	0	---	0.00	30.101 
23:30	49.2	49.2	49.2	81	43.6	0	0	---	0.00	30.102 
23:35	48.9	48.9	48.9	81	43.3	0	0	---	0.00	30.102 
23:40	48.8	48.8	48.8	82	43.6	0	0	---	0.00	30.102 
23:45	48.5	48.5	48.5	83	43.6	0	0	---	0.00	30.102 
23:50	48.3	48.3	48.3	83	43.4	0	0	---	0.00	30.102 
23:55	48.2	48.2	48.2	84	43.6	0	0	---	0.00	30.102 

CoCoRaHS
IN-AL-39
A2 Web Hosting
Creative Commons License
GoDaddy
search engine by freefind advanced

loaded 2018-11-17 15:03:23 • last modified 2010-11-18 10:43:29
Privacy PolicyDisclaimer
• wx.awcolley.com is powered by PmWiki v.2002016 •
• all content (unless otherwise noted) © 2018 A W Colley